sensor_id;sensor_type;location;lat;lon;timestamp;P1;durP1;ratioP1;P2;durP2;ratioP2
70487;SDS011;57976;48.174;16.370;2022-09-09T00:00:19;5.30;;;1.70;;
70487;SDS011;57976;48.174;16.370;2022-09-09T00:02:26;4.70;;;1.50;;
70487;SDS011;57976;48.174;16.370;2022-09-09T00:04:32;3.60;;;1.10;;
70487;SDS011;57976;48.174;16.370;2022-09-09T00:06:45;4.70;;;1.10;;
70487;SDS011;57976;48.174;16.370;2022-09-09T00:08:56;2.90;;;0.70;;
70487;SDS011;57976;48.174;16.370;2022-09-09T00:11:08;3.40;;;1.20;;
70487;SDS011;57976;48.174;16.370;2022-09-09T00:13:16;2.90;;;0.80;;
70487;SDS011;57976;48.174;16.370;2022-09-09T00:15:28;2.70;;;0.60;;
70487;SDS011;57976;48.174;16.370;2022-09-09T00:17:38;2.80;;;0.50;;
70487;SDS011;57976;48.174;16.370;2022-09-09T00:19:52;2.90;;;0.50;;
70487;SDS011;57976;48.174;16.370;2022-09-09T00:22:06;2.40;;;0.40;;
70487;SDS011;57976;48.174;16.370;2022-09-09T00:24:23;2.10;;;0.40;;
70487;SDS011;57976;48.174;16.370;2022-09-09T00:26:32;1.70;;;0.40;;
70487;SDS011;57976;48.174;16.370;2022-09-09T00:28:46;2.60;;;0.60;;
70487;SDS011;57976;48.174;16.370;2022-09-09T00:30:55;2.20;;;0.50;;
70487;SDS011;57976;48.174;16.370;2022-09-09T00:33:08;1.80;;;0.50;;
70487;SDS011;57976;48.174;16.370;2022-09-09T00:35:18;2.50;;;0.40;;
70487;SDS011;57976;48.174;16.370;2022-09-09T00:37:26;1.80;;;0.50;;
70487;SDS011;57976;48.174;16.370;2022-09-09T00:39:34;3.50;;;0.50;;
70487;SDS011;57976;48.174;16.370;2022-09-09T00:41:47;2.20;;;0.50;;
70487;SDS011;57976;48.174;16.370;2022-09-09T00:44:16;1.50;;;0.40;;
70487;SDS011;57976;48.174;16.370;2022-09-09T00:46:44;2.20;;;0.40;;
70487;SDS011;57976;48.174;16.370;2022-09-09T00:49:02;2.00;;;0.50;;
70487;SDS011;57976;48.174;16.370;2022-09-09T00:51:15;1.20;;;0.40;;
70487;SDS011;57976;48.174;16.370;2022-09-09T00:53:29;2.20;;;0.40;;
70487;SDS011;57976;48.174;16.370;2022-09-09T00:55:43;2.30;;;0.50;;
70487;SDS011;57976;48.174;16.370;2022-09-09T00:57:51;2.50;;;0.50;;
70487;SDS011;57976;48.174;16.370;2022-09-09T00:59:58;2.60;;;0.40;;
70487;SDS011;57976;48.174;16.370;2022-09-09T01:02:21;2.00;;;0.50;;
70487;SDS011;57976;48.174;16.370;2022-09-09T01:04:34;1.90;;;0.40;;
70487;SDS011;57976;48.174;16.370;2022-09-09T01:06:40;2.70;;;0.40;;
70487;SDS011;57976;48.174;16.370;2022-09-09T01:11:21;2.30;;;0.50;;
70487;SDS011;57976;48.174;16.370;2022-09-09T01:13:29;2.40;;;0.50;;
70487;SDS011;57976;48.174;16.370;2022-09-09T01:15:39;3.00;;;0.50;;
70487;SDS011;57976;48.174;16.370;2022-09-09T01:17:48;2.70;;;0.40;;
70487;SDS011;57976;48.174;16.370;2022-09-09T01:20:04;1.80;;;0.40;;
70487;SDS011;57976;48.174;16.370;2022-09-09T01:22:22;1.80;;;0.50;;
70487;SDS011;57976;48.174;16.370;2022-09-09T01:24:38;3.30;;;0.50;;
70487;SDS011;57976;48.174;16.370;2022-09-09T01:27:08;2.00;;;0.30;;
70487;SDS011;57976;48.174;16.370;2022-09-09T01:29:15;2.50;;;0.30;;
70487;SDS011;57976;48.174;16.370;2022-09-09T01:31:23;1.60;;;0.30;;
70487;SDS011;57976;48.174;16.370;2022-09-09T01:33:32;2.00;;;0.40;;
70487;SDS011;57976;48.174;16.370;2022-09-09T01:35:39;1.70;;;0.50;;
70487;SDS011;57976;48.174;16.370;2022-09-09T01:37:52;2.00;;;0.50;;
70487;SDS011;57976;48.174;16.370;2022-09-09T01:39:57;2.50;;;0.50;;
70487;SDS011;57976;48.174;16.370;2022-09-09T01:42:02;2.30;;;0.50;;
70487;SDS011;57976;48.174;16.370;2022-09-09T01:44:09;2.20;;;0.50;;
70487;SDS011;57976;48.174;16.370;2022-09-09T01:46:19;1.90;;;0.40;;
70487;SDS011;57976;48.174;16.370;2022-09-09T01:48:26;1.90;;;0.40;;
70487;SDS011;57976;48.174;16.370;2022-09-09T01:50:38;1.60;;;0.50;;
70487;SDS011;57976;48.174;16.370;2022-09-09T01:52:44;2.90;;;0.40;;
70487;SDS011;57976;48.174;16.370;2022-09-09T01:54:54;1.80;;;0.40;;
70487;SDS011;57976;48.174;16.370;2022-09-09T01:57:05;1.50;;;0.50;;
70487;SDS011;57976;48.174;16.370;2022-09-09T01:59:24;3.40;;;0.40;;
70487;SDS011;57976;48.174;16.370;2022-09-09T02:01:48;2.40;;;0.40;;
70487;SDS011;57976;48.174;16.370;2022-09-09T02:04:02;1.70;;;0.40;;
70487;SDS011;57976;48.174;16.370;2022-09-09T02:06:17;1.90;;;0.50;;
70487;SDS011;57976;48.174;16.370;2022-09-09T02:08:38;3.20;;;0.60;;
70487;SDS011;57976;48.174;16.370;2022-09-09T02:10:46;1.60;;;0.40;;
70487;SDS011;57976;48.174;16.370;2022-09-09T02:13:08;2.10;;;0.50;;
70487;SDS011;57976;48.174;16.370;2022-09-09T02:15:17;2.10;;;0.40;;
70487;SDS011;57976;48.174;16.370;2022-09-09T02:17:28;2.00;;;0.60;;
70487;SDS011;57976;48.174;16.370;2022-09-09T02:19:42;3.30;;;0.50;;
70487;SDS011;57976;48.174;16.370;2022-09-09T02:21:59;1.50;;;0.40;;
70487;SDS011;57976;48.174;16.370;2022-09-09T02:24:06;2.80;;;0.40;;
70487;SDS011;57976;48.174;16.370;2022-09-09T02:26:13;2.20;;;0.50;;
70487;SDS011;57976;48.174;16.370;2022-09-09T02:28:20;1.30;;;0.30;;
70487;SDS011;57976;48.174;16.370;2022-09-09T02:30:28;1.60;;;0.40;;
70487;SDS011;57976;48.174;16.370;2022-09-09T02:32:35;2.80;;;0.50;;
70487;SDS011;57976;48.174;16.370;2022-09-09T02:34:43;1.40;;;0.40;;
70487;SDS011;57976;48.174;16.370;2022-09-09T02:36:51;2.30;;;0.40;;
70487;SDS011;57976;48.174;16.370;2022-09-09T02:39:00;2.00;;;0.40;;
70487;SDS011;57976;48.174;16.370;2022-09-09T02:41:07;1.40;;;0.30;;
70487;SDS011;57976;48.174;16.370;2022-09-09T02:43:13;2.90;;;0.50;;
70487;SDS011;57976;48.174;16.370;2022-09-09T02:45:19;1.10;;;0.30;;
70487;SDS011;57976;48.174;16.370;2022-09-09T02:47:29;1.40;;;0.40;;
70487;SDS011;57976;48.174;16.370;2022-09-09T02:49:43;2.10;;;0.60;;
70487;SDS011;57976;48.174;16.370;2022-09-09T02:52:00;2.70;;;0.50;;
70487;SDS011;57976;48.174;16.370;2022-09-09T02:54:10;2.40;;;0.50;;
70487;SDS011;57976;48.174;16.370;2022-09-09T02:56:25;2.80;;;0.40;;
70487;SDS011;57976;48.174;16.370;2022-09-09T02:58:33;2.00;;;0.50;;
70487;SDS011;57976;48.174;16.370;2022-09-09T03:00:41;1.60;;;0.40;;
70487;SDS011;57976;48.174;16.370;2022-09-09T03:02:46;3.30;;;0.60;;
70487;SDS011;57976;48.174;16.370;2022-09-09T03:04:51;2.80;;;0.40;;
70487;SDS011;57976;48.174;16.370;2022-09-09T03:06:56;2.10;;;0.50;;
70487;SDS011;57976;48.174;16.370;2022-09-09T03:09:01;2.00;;;0.40;;
70487;SDS011;57976;48.174;16.370;2022-09-09T03:11:08;2.50;;;0.50;;
70487;SDS011;57976;48.174;16.370;2022-09-09T03:13:13;1.90;;;0.50;;
70487;SDS011;57976;48.174;16.370;2022-09-09T03:15:18;4.60;;;0.60;;
70487;SDS011;57976;48.174;16.370;2022-09-09T03:17:23;3.30;;;0.60;;
70487;SDS011;57976;48.174;16.370;2022-09-09T03:19:29;2.90;;;0.60;;
70487;SDS011;57976;48.174;16.370;2022-09-09T03:21:34;3.70;;;0.60;;
70487;SDS011;57976;48.174;16.370;2022-09-09T03:23:39;4.10;;;0.70;;
70487;SDS011;57976;48.174;16.370;2022-09-09T03:25:47;2.50;;;0.60;;
70487;SDS011;57976;48.174;16.370;2022-09-09T03:27:55;3.20;;;0.70;;
70487;SDS011;57976;48.174;16.370;2022-09-09T03:30:00;2.60;;;0.60;;
70487;SDS011;57976;48.174;16.370;2022-09-09T03:32:05;2.40;;;0.60;;
70487;SDS011;57976;48.174;16.370;2022-09-09T03:34:10;2.30;;;0.60;;
70487;SDS011;57976;48.174;16.370;2022-09-09T03:36:16;3.70;;;0.50;;
70487;SDS011;57976;48.174;16.370;2022-09-09T03:38:20;2.10;;;0.50;;
70487;SDS011;57976;48.174;16.370;2022-09-09T03:40:25;3.80;;;0.70;;
70487;SDS011;57976;48.174;16.370;2022-09-09T03:42:30;3.10;;;0.70;;
70487;SDS011;57976;48.174;16.370;2022-09-09T03:44:35;2.00;;;0.60;;
70487;SDS011;57976;48.174;16.370;2022-09-09T03:46:40;2.40;;;0.60;;
70487;SDS011;57976;48.174;16.370;2022-09-09T03:48:45;3.90;;;0.70;;
70487;SDS011;57976;48.174;16.370;2022-09-09T03:50:50;3.40;;;0.70;;
70487;SDS011;57976;48.174;16.370;2022-09-09T03:52:56;5.00;;;0.80;;
70487;SDS011;57976;48.174;16.370;2022-09-09T03:55:01;2.70;;;0.70;;
70487;SDS011;57976;48.174;16.370;2022-09-09T03:57:06;3.60;;;0.70;;
70487;SDS011;57976;48.174;16.370;2022-09-09T03:59:10;2.60;;;0.80;;
70487;SDS011;57976;48.174;16.370;2022-09-09T04:01:17;3.30;;;0.80;;
70487;SDS011;57976;48.174;16.370;2022-09-09T04:03:21;3.80;;;0.70;;
70487;SDS011;57976;48.174;16.370;2022-09-09T04:05:33;4.00;;;1.00;;
70487;SDS011;57976;48.174;16.370;2022-09-09T04:07:37;4.00;;;1.10;;
70487;SDS011;57976;48.174;16.370;2022-09-09T04:09:42;3.80;;;0.90;;
70487;SDS011;57976;48.174;16.370;2022-09-09T04:11:48;3.30;;;0.90;;
70487;SDS011;57976;48.174;16.370;2022-09-09T04:13:53;3.90;;;0.90;;
70487;SDS011;57976;48.174;16.370;2022-09-09T04:15:58;4.90;;;1.10;;
70487;SDS011;57976;48.174;16.370;2022-09-09T04:18:05;3.80;;;1.00;;
70487;SDS011;57976;48.174;16.370;2022-09-09T04:20:13;4.10;;;1.00;;
70487;SDS011;57976;48.174;16.370;2022-09-09T04:22:17;3.90;;;1.00;;
70487;SDS011;57976;48.174;16.370;2022-09-09T04:24:22;4.20;;;1.00;;
70487;SDS011;57976;48.174;16.370;2022-09-09T04:26:27;6.70;;;1.20;;
70487;SDS011;57976;48.174;16.370;2022-09-09T04:28:32;3.80;;;1.10;;
70487;SDS011;57976;48.174;16.370;2022-09-09T04:30:39;3.60;;;1.10;;
70487;SDS011;57976;48.174;16.370;2022-09-09T04:32:44;4.30;;;1.20;;
70487;SDS011;57976;48.174;16.370;2022-09-09T04:34:48;4.10;;;1.20;;
70487;SDS011;57976;48.174;16.370;2022-09-09T04:36:53;4.60;;;1.30;;
70487;SDS011;57976;48.174;16.370;2022-09-09T04:38:59;4.60;;;1.30;;
70487;SDS011;57976;48.174;16.370;2022-09-09T04:41:04;4.60;;;1.30;;
70487;SDS011;57976;48.174;16.370;2022-09-09T04:43:10;5.70;;;1.30;;
70487;SDS011;57976;48.174;16.370;2022-09-09T04:45:17;4.30;;;1.30;;
70487;SDS011;57976;48.174;16.370;2022-09-09T04:47:22;4.90;;;1.50;;
70487;SDS011;57976;48.174;16.370;2022-09-09T04:49:27;4.80;;;1.20;;
70487;SDS011;57976;48.174;16.370;2022-09-09T04:51:31;4.30;;;1.40;;
70487;SDS011;57976;48.174;16.370;2022-09-09T04:53:37;4.90;;;1.40;;
70487;SDS011;57976;48.174;16.370;2022-09-09T04:55:41;5.40;;;1.50;;
70487;SDS011;57976;48.174;16.370;2022-09-09T04:57:46;5.20;;;1.50;;
70487;SDS011;57976;48.174;16.370;2022-09-09T04:59:51;5.40;;;1.50;;
70487;SDS011;57976;48.174;16.370;2022-09-09T05:01:56;9.20;;;1.60;;
70487;SDS011;57976;48.174;16.370;2022-09-09T05:04:01;4.90;;;1.20;;
70487;SDS011;57976;48.174;16.370;2022-09-09T05:06:08;7.20;;;1.50;;
70487;SDS011;57976;48.174;16.370;2022-09-09T05:08:14;4.50;;;1.40;;
70487;SDS011;57976;48.174;16.370;2022-09-09T05:10:19;5.40;;;1.20;;
70487;SDS011;57976;48.174;16.370;2022-09-09T05:12:24;4.60;;;1.30;;
70487;SDS011;57976;48.174;16.370;2022-09-09T05:14:29;6.20;;;1.20;;
70487;SDS011;57976;48.174;16.370;2022-09-09T05:16:35;4.80;;;1.40;;
70487;SDS011;57976;48.174;16.370;2022-09-09T05:18:40;5.80;;;1.50;;
70487;SDS011;57976;48.174;16.370;2022-09-09T05:20:45;5.50;;;1.60;;
70487;SDS011;57976;48.174;16.370;2022-09-09T05:22:53;4.90;;;1.50;;
70487;SDS011;57976;48.174;16.370;2022-09-09T05:24:59;6.10;;;1.70;;
70487;SDS011;57976;48.174;16.370;2022-09-09T05:27:03;5.20;;;1.50;;
70487;SDS011;57976;48.174;16.370;2022-09-09T05:29:08;4.70;;;1.50;;
70487;SDS011;57976;48.174;16.370;2022-09-09T05:31:14;4.80;;;1.50;;
70487;SDS011;57976;48.174;16.370;2022-09-09T05:33:20;4.60;;;1.50;;
70487;SDS011;57976;48.174;16.370;2022-09-09T05:35:26;7.30;;;2.40;;
70487;SDS011;57976;48.174;16.370;2022-09-09T05:37:31;5.30;;;1.70;;
70487;SDS011;57976;48.174;16.370;2022-09-09T05:39:36;6.30;;;2.20;;
70487;SDS011;57976;48.174;16.370;2022-09-09T05:41:41;6.50;;;2.40;;
70487;SDS011;57976;48.174;16.370;2022-09-09T05:43:46;6.80;;;2.00;;
70487;SDS011;57976;48.174;16.370;2022-09-09T05:45:59;4.80;;;1.70;;
70487;SDS011;57976;48.174;16.370;2022-09-09T05:48:05;6.80;;;2.30;;
70487;SDS011;57976;48.174;16.370;2022-09-09T05:50:10;6.50;;;2.40;;
70487;SDS011;57976;48.174;16.370;2022-09-09T05:52:14;7.60;;;2.20;;
70487;SDS011;57976;48.174;16.370;2022-09-09T05:54:19;7.40;;;2.30;;
70487;SDS011;57976;48.174;16.370;2022-09-09T05:56:26;6.50;;;2.40;;
70487;SDS011;57976;48.174;16.370;2022-09-09T05:58:33;8.90;;;2.20;;
70487;SDS011;57976;48.174;16.370;2022-09-09T06:00:40;6.90;;;2.50;;
70487;SDS011;57976;48.174;16.370;2022-09-09T06:02:49;7.40;;;2.60;;
70487;SDS011;57976;48.174;16.370;2022-09-09T06:04:55;7.50;;;2.60;;
70487;SDS011;57976;48.174;16.370;2022-09-09T06:07:03;8.70;;;2.50;;
70487;SDS011;57976;48.174;16.370;2022-09-09T06:09:09;7.00;;;2.50;;
70487;SDS011;57976;48.174;16.370;2022-09-09T06:11:16;7.10;;;2.10;;
70487;SDS011;57976;48.174;16.370;2022-09-09T06:13:23;8.30;;;3.30;;
70487;SDS011;57976;48.174;16.370;2022-09-09T06:15:28;7.30;;;2.40;;
70487;SDS011;57976;48.174;16.370;2022-09-09T06:17:32;6.60;;;2.30;;
70487;SDS011;57976;48.174;16.370;2022-09-09T06:19:37;6.10;;;2.40;;
70487;SDS011;57976;48.174;16.370;2022-09-09T06:21:42;5.80;;;2.20;;
70487;SDS011;57976;48.174;16.370;2022-09-09T06:23:47;8.50;;;2.60;;
70487;SDS011;57976;48.174;16.370;2022-09-09T06:25:59;8.00;;;2.70;;
70487;SDS011;57976;48.174;16.370;2022-09-09T06:28:05;10.70;;;3.50;;
70487;SDS011;57976;48.174;16.370;2022-09-09T06:30:11;8.80;;;3.50;;
70487;SDS011;57976;48.174;16.370;2022-09-09T06:32:16;8.70;;;3.40;;
70487;SDS011;57976;48.174;16.370;2022-09-09T06:34:21;10.00;;;3.70;;
70487;SDS011;57976;48.174;16.370;2022-09-09T06:36:30;8.00;;;2.80;;
70487;SDS011;57976;48.174;16.370;2022-09-09T06:38:36;8.90;;;2.60;;
70487;SDS011;57976;48.174;16.370;2022-09-09T06:40:41;7.00;;;2.90;;
70487;SDS011;57976;48.174;16.370;2022-09-09T06:42:45;7.20;;;2.60;;
70487;SDS011;57976;48.174;16.370;2022-09-09T06:44:58;5.80;;;2.30;;
70487;SDS011;57976;48.174;16.370;2022-09-09T06:47:19;8.70;;;2.80;;
70487;SDS011;57976;48.174;16.370;2022-09-09T06:49:24;7.40;;;2.30;;
70487;SDS011;57976;48.174;16.370;2022-09-09T06:51:29;6.70;;;2.40;;
70487;SDS011;57976;48.174;16.370;2022-09-09T06:53:38;8.20;;;2.60;;
70487;SDS011;57976;48.174;16.370;2022-09-09T06:55:46;7.80;;;2.40;;
70487;SDS011;57976;48.174;16.370;2022-09-09T06:57:51;8.70;;;2.60;;
70487;SDS011;57976;48.174;16.370;2022-09-09T06:59:57;8.90;;;3.00;;
70487;SDS011;57976;48.174;16.370;2022-09-09T07:02:02;7.70;;;3.00;;
70487;SDS011;57976;48.174;16.370;2022-09-09T07:04:07;7.50;;;2.60;;
70487;SDS011;57976;48.174;16.370;2022-09-09T07:06:15;7.30;;;2.80;;
70487;SDS011;57976;48.174;16.370;2022-09-09T07:08:21;9.40;;;2.80;;
70487;SDS011;57976;48.174;16.370;2022-09-09T07:10:27;7.40;;;2.90;;
70487;SDS011;57976;48.174;16.370;2022-09-09T07:12:31;7.50;;;3.10;;
70487;SDS011;57976;48.174;16.370;2022-09-09T07:14:36;7.60;;;3.00;;
70487;SDS011;57976;48.174;16.370;2022-09-09T07:16:42;8.00;;;3.30;;
70487;SDS011;57976;48.174;16.370;2022-09-09T07:18:49;6.10;;;2.40;;
70487;SDS011;57976;48.174;16.370;2022-09-09T07:20:55;6.80;;;2.90;;
70487;SDS011;57976;48.174;16.370;2022-09-09T07:23:00;7.50;;;2.80;;
70487;SDS011;57976;48.174;16.370;2022-09-09T07:25:06;6.60;;;2.60;;
70487;SDS011;57976;48.174;16.370;2022-09-09T07:27:11;6.20;;;2.30;;
70487;SDS011;57976;48.174;16.370;2022-09-09T07:29:16;6.70;;;2.40;;
70487;SDS011;57976;48.174;16.370;2022-09-09T07:31:24;6.80;;;2.40;;
70487;SDS011;57976;48.174;16.370;2022-09-09T07:33:31;6.20;;;2.60;;
70487;SDS011;57976;48.174;16.370;2022-09-09T07:35:37;8.50;;;2.90;;
70487;SDS011;57976;48.174;16.370;2022-09-09T07:37:42;6.30;;;2.50;;
70487;SDS011;57976;48.174;16.370;2022-09-09T07:39:53;7.60;;;2.50;;
70487;SDS011;57976;48.174;16.370;2022-09-09T07:41:58;6.60;;;2.70;;
70487;SDS011;57976;48.174;16.370;2022-09-09T07:44:05;5.40;;;2.30;;
70487;SDS011;57976;48.174;16.370;2022-09-09T07:46:12;6.30;;;2.30;;
70487;SDS011;57976;48.174;16.370;2022-09-09T07:48:19;7.60;;;2.50;;
70487;SDS011;57976;48.174;16.370;2022-09-09T07:50:24;6.40;;;2.40;;
70487;SDS011;57976;48.174;16.370;2022-09-09T07:52:30;6.50;;;2.70;;
70487;SDS011;57976;48.174;16.370;2022-09-09T07:54:36;6.80;;;2.60;;
70487;SDS011;57976;48.174;16.370;2022-09-09T07:56:41;7.70;;;2.60;;
70487;SDS011;57976;48.174;16.370;2022-09-09T07:58:47;8.90;;;4.10;;
70487;SDS011;57976;48.174;16.370;2022-09-09T08:00:53;11.40;;;7.10;;
70487;SDS011;57976;48.174;16.370;2022-09-09T08:02:58;7.50;;;3.10;;
70487;SDS011;57976;48.174;16.370;2022-09-09T08:05:04;5.90;;;2.30;;
70487;SDS011;57976;48.174;16.370;2022-09-09T08:07:09;6.50;;;2.50;;
70487;SDS011;57976;48.174;16.370;2022-09-09T08:09:20;7.20;;;2.60;;
70487;SDS011;57976;48.174;16.370;2022-09-09T08:11:25;7.60;;;2.90;;
70487;SDS011;57976;48.174;16.370;2022-09-09T08:13:32;6.40;;;2.50;;
70487;SDS011;57976;48.174;16.370;2022-09-09T08:15:37;5.90;;;2.40;;
70487;SDS011;57976;48.174;16.370;2022-09-09T08:17:42;7.80;;;2.40;;
70487;SDS011;57976;48.174;16.370;2022-09-09T08:19:47;7.50;;;2.90;;
70487;SDS011;57976;48.174;16.370;2022-09-09T08:21:55;6.00;;;2.80;;
70487;SDS011;57976;48.174;16.370;2022-09-09T08:24:00;7.80;;;3.20;;
70487;SDS011;57976;48.174;16.370;2022-09-09T08:26:08;7.70;;;3.10;;
70487;SDS011;57976;48.174;16.370;2022-09-09T08:28:15;7.50;;;2.70;;
70487;SDS011;57976;48.174;16.370;2022-09-09T08:30:20;6.70;;;2.40;;
70487;SDS011;57976;48.174;16.370;2022-09-09T08:32:24;6.50;;;2.80;;
70487;SDS011;57976;48.174;16.370;2022-09-09T08:34:29;9.70;;;3.00;;
70487;SDS011;57976;48.174;16.370;2022-09-09T08:36:37;7.60;;;2.60;;
70487;SDS011;57976;48.174;16.370;2022-09-09T08:38:43;7.80;;;2.80;;
70487;SDS011;57976;48.174;16.370;2022-09-09T08:40:50;7.70;;;3.10;;
70487;SDS011;57976;48.174;16.370;2022-09-09T08:43:00;7.90;;;2.90;;
70487;SDS011;57976;48.174;16.370;2022-09-09T08:45:14;6.70;;;3.00;;
70487;SDS011;57976;48.174;16.370;2022-09-09T08:47:28;7.50;;;2.80;;
70487;SDS011;57976;48.174;16.370;2022-09-09T08:49:47;7.30;;;2.90;;
70487;SDS011;57976;48.174;16.370;2022-09-09T08:52:06;7.20;;;2.80;;
70487;SDS011;57976;48.174;16.370;2022-09-09T08:54:17;8.20;;;2.90;;
70487;SDS011;57976;48.174;16.370;2022-09-09T08:56:42;10.00;;;4.10;;
70487;SDS011;57976;48.174;16.370;2022-09-09T08:58:47;9.00;;;4.80;;
70487;SDS011;57976;48.174;16.370;2022-09-09T09:01:09;8.80;;;4.30;;
70487;SDS011;57976;48.174;16.370;2022-09-09T09:03:28;6.60;;;2.70;;
70487;SDS011;57976;48.174;16.370;2022-09-09T09:05:44;6.00;;;2.50;;
70487;SDS011;57976;48.174;16.370;2022-09-09T09:08:00;5.70;;;1.90;;
70487;SDS011;57976;48.174;16.370;2022-09-09T09:10:18;5.80;;;2.20;;
70487;SDS011;57976;48.174;16.370;2022-09-09T09:12:44;7.40;;;1.90;;
70487;SDS011;57976;48.174;16.370;2022-09-09T09:14:51;6.70;;;2.10;;
70487;SDS011;57976;48.174;16.370;2022-09-09T09:16:56;5.60;;;2.00;;
70487;SDS011;57976;48.174;16.370;2022-09-09T09:19:03;5.90;;;1.90;;
70487;SDS011;57976;48.174;16.370;2022-09-09T09:21:12;5.70;;;1.60;;
70487;SDS011;57976;48.174;16.370;2022-09-09T09:23:22;16.50;;;11.80;;
70487;SDS011;57976;48.174;16.370;2022-09-09T09:25:31;11.10;;;5.80;;
70487;SDS011;57976;48.174;16.370;2022-09-09T09:27:43;3.80;;;1.10;;
70487;SDS011;57976;48.174;16.370;2022-09-09T09:29:53;5.30;;;1.20;;
70487;SDS011;57976;48.174;16.370;2022-09-09T09:32:19;4.80;;;1.50;;
70487;SDS011;57976;48.174;16.370;2022-09-09T09:34:26;5.30;;;1.40;;
70487;SDS011;57976;48.174;16.370;2022-09-09T09:36:35;4.70;;;1.40;;
70487;SDS011;57976;48.174;16.370;2022-09-09T09:38:53;5.00;;;1.70;;
70487;SDS011;57976;48.174;16.370;2022-09-09T09:41:29;5.60;;;1.50;;
70487;SDS011;57976;48.174;16.370;2022-09-09T09:43:36;5.50;;;1.30;;
70487;SDS011;57976;48.174;16.370;2022-09-09T09:45:46;4.80;;;1.30;;
70487;SDS011;57976;48.174;16.370;2022-09-09T09:48:11;3.70;;;1.20;;
70487;SDS011;57976;48.174;16.370;2022-09-09T09:50:17;6.20;;;1.40;;
70487;SDS011;57976;48.174;16.370;2022-09-09T09:52:25;3.90;;;1.30;;
70487;SDS011;57976;48.174;16.370;2022-09-09T09:54:33;4.20;;;1.50;;
70487;SDS011;57976;48.174;16.370;2022-09-09T09:56:41;5.00;;;1.70;;
70487;SDS011;57976;48.174;16.370;2022-09-09T09:58:51;6.20;;;1.90;;
70487;SDS011;57976;48.174;16.370;2022-09-09T10:01:00;5.40;;;1.90;;
70487;SDS011;57976;48.174;16.370;2022-09-09T10:03:14;5.50;;;2.20;;
70487;SDS011;57976;48.174;16.370;2022-09-09T10:05:27;4.20;;;1.40;;
70487;SDS011;57976;48.174;16.370;2022-09-09T10:07:42;4.10;;;1.40;;
70487;SDS011;57976;48.174;16.370;2022-09-09T10:09:49;3.80;;;1.30;;
70487;SDS011;57976;48.174;16.370;2022-09-09T10:12:00;5.20;;;1.50;;
70487;SDS011;57976;48.174;16.370;2022-09-09T10:14:15;5.90;;;2.30;;
70487;SDS011;57976;48.174;16.370;2022-09-09T10:16:30;5.50;;;2.40;;
70487;SDS011;57976;48.174;16.370;2022-09-09T10:18:52;4.80;;;1.90;;
70487;SDS011;57976;48.174;16.370;2022-09-09T10:21:03;8.00;;;3.00;;
70487;SDS011;57976;48.174;16.370;2022-09-09T10:23:19;5.60;;;2.30;;
70487;SDS011;57976;48.174;16.370;2022-09-09T10:25:35;6.60;;;2.30;;
70487;SDS011;57976;48.174;16.370;2022-09-09T10:27:55;6.20;;;2.30;;
70487;SDS011;57976;48.174;16.370;2022-09-09T10:30:22;6.40;;;2.10;;
70487;SDS011;57976;48.174;16.370;2022-09-09T10:32:40;5.40;;;2.00;;
70487;SDS011;57976;48.174;16.370;2022-09-09T10:34:52;5.00;;;2.10;;
70487;SDS011;57976;48.174;16.370;2022-09-09T10:37:02;6.60;;;1.90;;
70487;SDS011;57976;48.174;16.370;2022-09-09T10:39:18;6.50;;;1.60;;
70487;SDS011;57976;48.174;16.370;2022-09-09T10:41:48;5.60;;;2.00;;
70487;SDS011;57976;48.174;16.370;2022-09-09T10:46:23;4.50;;;1.60;;
70487;SDS011;57976;48.174;16.370;2022-09-09T10:51:05;3.50;;;1.30;;
70487;SDS011;57976;48.174;16.370;2022-09-09T10:53:26;4.00;;;1.30;;
70487;SDS011;57976;48.174;16.370;2022-09-09T10:55:40;4.50;;;1.10;;
70487;SDS011;57976;48.174;16.370;2022-09-09T10:57:48;4.50;;;1.20;;
70487;SDS011;57976;48.174;16.370;2022-09-09T10:59:57;3.20;;;1.00;;
70487;SDS011;57976;48.174;16.370;2022-09-09T11:02:10;2.70;;;0.90;;
70487;SDS011;57976;48.174;16.370;2022-09-09T11:04:21;3.10;;;1.00;;
70487;SDS011;57976;48.174;16.370;2022-09-09T11:06:31;2.80;;;1.00;;
70487;SDS011;57976;48.174;16.370;2022-09-09T11:08:40;3.90;;;0.90;;
70487;SDS011;57976;48.174;16.370;2022-09-09T11:10:45;3.60;;;1.00;;
70487;SDS011;57976;48.174;16.370;2022-09-09T11:12:56;3.60;;;1.10;;
70487;SDS011;57976;48.174;16.370;2022-09-09T11:15:05;3.80;;;1.00;;
70487;SDS011;57976;48.174;16.370;2022-09-09T11:17:18;3.20;;;0.90;;
70487;SDS011;57976;48.174;16.370;2022-09-09T11:19:28;4.90;;;1.10;;
70487;SDS011;57976;48.174;16.370;2022-09-09T11:21:37;4.40;;;1.10;;
70487;SDS011;57976;48.174;16.370;2022-09-09T11:23:49;3.70;;;1.10;;
70487;SDS011;57976;48.174;16.370;2022-09-09T11:25:57;5.70;;;1.30;;
70487;SDS011;57976;48.174;16.370;2022-09-09T11:28:08;4.20;;;1.10;;
70487;SDS011;57976;48.174;16.370;2022-09-09T11:30:27;4.00;;;1.00;;
70487;SDS011;57976;48.174;16.370;2022-09-09T11:33:02;4.00;;;1.20;;
70487;SDS011;57976;48.174;16.370;2022-09-09T11:35:21;3.20;;;1.10;;
70487;SDS011;57976;48.174;16.370;2022-09-09T11:37:44;5.30;;;1.10;;
70487;SDS011;57976;48.174;16.370;2022-09-09T11:40:14;3.90;;;1.00;;
70487;SDS011;57976;48.174;16.370;2022-09-09T11:42:22;4.40;;;1.40;;
70487;SDS011;57976;48.174;16.370;2022-09-09T11:44:28;4.10;;;1.50;;
70487;SDS011;57976;48.174;16.370;2022-09-09T11:46:35;4.70;;;1.60;;
70487;SDS011;57976;48.174;16.370;2022-09-09T11:48:42;3.70;;;1.00;;
70487;SDS011;57976;48.174;16.370;2022-09-09T11:50:56;4.10;;;1.00;;
70487;SDS011;57976;48.174;16.370;2022-09-09T11:53:14;3.50;;;1.10;;
70487;SDS011;57976;48.174;16.370;2022-09-09T11:55:26;3.90;;;0.90;;
70487;SDS011;57976;48.174;16.370;2022-09-09T11:57:33;3.80;;;1.10;;
70487;SDS011;57976;48.174;16.370;2022-09-09T11:59:39;3.70;;;0.90;;
70487;SDS011;57976;48.174;16.370;2022-09-09T12:01:56;3.70;;;1.00;;
70487;SDS011;57976;48.174;16.370;2022-09-09T12:04:13;4.10;;;0.90;;
70487;SDS011;57976;48.174;16.370;2022-09-09T12:06:30;2.60;;;0.70;;
70487;SDS011;57976;48.174;16.370;2022-09-09T12:08:44;5.50;;;1.00;;
70487;SDS011;57976;48.174;16.370;2022-09-09T12:10:54;5.10;;;1.50;;
70487;SDS011;57976;48.174;16.370;2022-09-09T12:13:09;5.00;;;1.50;;
70487;SDS011;57976;48.174;16.370;2022-09-09T12:15:24;4.70;;;1.10;;
70487;SDS011;57976;48.174;16.370;2022-09-09T12:17:31;4.90;;;1.50;;
70487;SDS011;57976;48.174;16.370;2022-09-09T12:19:43;4.20;;;1.20;;
70487;SDS011;57976;48.174;16.370;2022-09-09T12:21:51;3.10;;;1.10;;
70487;SDS011;57976;48.174;16.370;2022-09-09T12:24:03;3.50;;;1.00;;
70487;SDS011;57976;48.174;16.370;2022-09-09T12:26:19;3.80;;;1.20;;
70487;SDS011;57976;48.174;16.370;2022-09-09T12:28:37;3.60;;;1.20;;
70487;SDS011;57976;48.174;16.370;2022-09-09T12:30:49;4.70;;;1.40;;
70487;SDS011;57976;48.174;16.370;2022-09-09T12:33:06;4.30;;;1.20;;
70487;SDS011;57976;48.174;16.370;2022-09-09T12:35:16;3.40;;;1.30;;
70487;SDS011;57976;48.174;16.370;2022-09-09T12:37:29;3.10;;;0.90;;
70487;SDS011;57976;48.174;16.370;2022-09-09T12:39:38;3.10;;;1.00;;
70487;SDS011;57976;48.174;16.370;2022-09-09T12:41:53;2.60;;;0.80;;
70487;SDS011;57976;48.174;16.370;2022-09-09T12:44:04;4.00;;;1.50;;
70487;SDS011;57976;48.174;16.370;2022-09-09T12:46:14;3.30;;;1.10;;
70487;SDS011;57976;48.174;16.370;2022-09-09T12:48:30;3.00;;;1.00;;
70487;SDS011;57976;48.174;16.370;2022-09-09T12:50:43;5.00;;;1.10;;
70487;SDS011;57976;48.174;16.370;2022-09-09T12:52:51;3.60;;;1.00;;
70487;SDS011;57976;48.174;16.370;2022-09-09T12:54:59;4.00;;;1.20;;